sensor_id;sensor_type;location;lat;lon;timestamp;P1;durP1;ratioP1;P2;durP2;ratioP2
77598;SDS011;66758;52.078;5.070;2024-01-10T00:01:48;7.30;;;2.20;;
77598;SDS011;66758;52.078;5.070;2024-01-10T00:04:13;4.97;;;2.00;;
77598;SDS011;66758;52.078;5.070;2024-01-10T00:06:43;6.18;;;2.17;;
77598;SDS011;66758;52.078;5.070;2024-01-10T00:09:09;4.30;;;1.73;;
77598;SDS011;66758;52.078;5.070;2024-01-10T00:11:35;4.55;;;2.13;;
77598;SDS011;66758;52.078;5.070;2024-01-10T00:14:00;5.23;;;1.83;;
77598;SDS011;66758;52.078;5.070;2024-01-10T00:16:28;5.57;;;2.13;;
77598;SDS011;66758;52.078;5.070;2024-01-10T00:18:54;5.80;;;2.33;;
77598;SDS011;66758;52.078;5.070;2024-01-10T00:21:20;4.40;;;1.60;;
77598;SDS011;66758;52.078;5.070;2024-01-10T00:23:46;5.23;;;1.87;;
77598;SDS011;66758;52.078;5.070;2024-01-10T00:26:12;5.00;;;1.73;;
77598;SDS011;66758;52.078;5.070;2024-01-10T00:28:41;7.03;;;2.42;;
77598;SDS011;66758;52.078;5.070;2024-01-10T00:31:06;5.72;;;2.65;;
77598;SDS011;66758;52.078;5.070;2024-01-10T00:33:32;5.83;;;1.80;;
77598;SDS011;66758;52.078;5.070;2024-01-10T00:35:57;6.07;;;2.00;;
77598;SDS011;66758;52.078;5.070;2024-01-10T00:38:22;5.97;;;2.20;;
77598;SDS011;66758;52.078;5.070;2024-01-10T00:40:49;4.00;;;1.70;;
77598;SDS011;66758;52.078;5.070;2024-01-10T00:43:16;5.70;;;2.40;;
77598;SDS011;66758;52.078;5.070;2024-01-10T00:45:42;5.97;;;2.53;;
77598;SDS011;66758;52.078;5.070;2024-01-10T00:48:09;4.43;;;1.88;;
77598;SDS011;66758;52.078;5.070;2024-01-10T00:50:34;4.73;;;1.87;;
77598;SDS011;66758;52.078;5.070;2024-01-10T00:52:59;5.97;;;2.30;;
77598;SDS011;66758;52.078;5.070;2024-01-10T00:55:25;5.57;;;2.30;;
77598;SDS011;66758;52.078;5.070;2024-01-10T00:57:50;5.20;;;2.05;;
77598;SDS011;66758;52.078;5.070;2024-01-10T01:00:15;5.40;;;2.07;;
77598;SDS011;66758;52.078;5.070;2024-01-10T01:02:41;3.77;;;1.63;;
77598;SDS011;66758;52.078;5.070;2024-01-10T01:05:06;5.50;;;2.20;;
77598;SDS011;66758;52.078;5.070;2024-01-10T01:07:32;4.93;;;2.42;;
77598;SDS011;66758;52.078;5.070;2024-01-10T01:09:57;5.80;;;2.33;;
77598;SDS011;66758;52.078;5.070;2024-01-10T01:12:23;6.00;;;2.50;;
77598;SDS011;66758;52.078;5.070;2024-01-10T01:14:48;5.53;;;2.27;;
77598;SDS011;66758;52.078;5.070;2024-01-10T01:17:13;6.90;;;2.38;;
77598;SDS011;66758;52.078;5.070;2024-01-10T01:19:39;3.90;;;1.77;;
77598;SDS011;66758;52.078;5.070;2024-01-10T01:22:04;6.20;;;2.40;;
77598;SDS011;66758;52.078;5.070;2024-01-10T01:24:31;5.47;;;2.47;;
77598;SDS011;66758;52.078;5.070;2024-01-10T01:26:56;6.20;;;2.38;;
77598;SDS011;66758;52.078;5.070;2024-01-10T01:29:21;8.03;;;2.50;;
77598;SDS011;66758;52.078;5.070;2024-01-10T01:31:47;6.30;;;2.37;;
77598;SDS011;66758;52.078;5.070;2024-01-10T01:34:13;4.75;;;2.50;;
77598;SDS011;66758;52.078;5.070;2024-01-10T01:36:38;6.50;;;2.70;;
77598;SDS011;66758;52.078;5.070;2024-01-10T01:39:03;7.17;;;2.07;;
77598;SDS011;66758;52.078;5.070;2024-01-10T01:41:28;6.10;;;2.70;;
77598;SDS011;66758;52.078;5.070;2024-01-10T01:43:54;6.37;;;2.97;;
77598;SDS011;66758;52.078;5.070;2024-01-10T01:46:19;6.63;;;2.50;;
77598;SDS011;66758;52.078;5.070;2024-01-10T01:48:44;4.50;;;1.73;;
77598;SDS011;66758;52.078;5.070;2024-01-10T01:51:11;6.57;;;3.00;;
77598;SDS011;66758;52.078;5.070;2024-01-10T01:53:37;6.07;;;2.88;;
77598;SDS011;66758;52.078;5.070;2024-01-10T01:56:05;5.23;;;2.00;;
77598;SDS011;66758;52.078;5.070;2024-01-10T01:58:31;7.05;;;2.47;;
77598;SDS011;66758;52.078;5.070;2024-01-10T02:00:56;7.03;;;2.37;;
77598;SDS011;66758;52.078;5.070;2024-01-10T02:03:21;5.80;;;2.17;;
77598;SDS011;66758;52.078;5.070;2024-01-10T02:05:47;8.13;;;2.40;;
77598;SDS011;66758;52.078;5.070;2024-01-10T02:08:13;5.13;;;2.10;;
77598;SDS011;66758;52.078;5.070;2024-01-10T02:10:38;6.70;;;3.10;;
77598;SDS011;66758;52.078;5.070;2024-01-10T02:13:05;5.53;;;2.60;;
77598;SDS011;66758;52.078;5.070;2024-01-10T02:15:30;7.32;;;2.63;;
77598;SDS011;66758;52.078;5.070;2024-01-10T02:17:56;5.53;;;1.90;;
77598;SDS011;66758;52.078;5.070;2024-01-10T02:20:22;5.40;;;2.78;;
77598;SDS011;66758;52.078;5.070;2024-01-10T02:22:47;4.23;;;2.20;;
77598;SDS011;66758;52.078;5.070;2024-01-10T02:25:13;7.17;;;2.13;;
77598;SDS011;66758;52.078;5.070;2024-01-10T02:27:40;5.70;;;1.98;;
77598;SDS011;66758;52.078;5.070;2024-01-10T02:30:06;7.10;;;2.85;;
77598;SDS011;66758;52.078;5.070;2024-01-10T02:32:31;5.17;;;2.27;;
77598;SDS011;66758;52.078;5.070;2024-01-10T02:34:57;6.03;;;2.85;;
77598;SDS011;66758;52.078;5.070;2024-01-10T02:37:23;6.50;;;2.83;;
77598;SDS011;66758;52.078;5.070;2024-01-10T02:39:48;5.75;;;2.97;;
77598;SDS011;66758;52.078;5.070;2024-01-10T02:42:17;6.67;;;2.70;;
77598;SDS011;66758;52.078;5.070;2024-01-10T02:44:42;6.60;;;2.85;;
77598;SDS011;66758;52.078;5.070;2024-01-10T02:47:08;5.60;;;2.50;;
77598;SDS011;66758;52.078;5.070;2024-01-10T02:49:33;6.13;;;2.73;;
77598;SDS011;66758;52.078;5.070;2024-01-10T02:51:59;6.50;;;2.95;;
77598;SDS011;66758;52.078;5.070;2024-01-10T02:54:24;9.67;;;2.67;;
77598;SDS011;66758;52.078;5.070;2024-01-10T02:56:49;6.57;;;2.90;;
77598;SDS011;66758;52.078;5.070;2024-01-10T02:59:15;7.10;;;3.10;;
77598;SDS011;66758;52.078;5.070;2024-01-10T03:01:40;7.22;;;2.60;;
77598;SDS011;66758;52.078;5.070;2024-01-10T03:04:06;6.57;;;3.07;;
77598;SDS011;66758;52.078;5.070;2024-01-10T03:06:32;6.72;;;3.08;;
77598;SDS011;66758;52.078;5.070;2024-01-10T03:08:57;6.63;;;2.47;;
77598;SDS011;66758;52.078;5.070;2024-01-10T03:11:22;7.37;;;2.27;;
77598;SDS011;66758;52.078;5.070;2024-01-10T03:13:50;6.27;;;2.60;;
77598;SDS011;66758;52.078;5.070;2024-01-10T03:16:15;5.82;;;3.03;;
77598;SDS011;66758;52.078;5.070;2024-01-10T03:18:40;6.67;;;3.37;;
77598;SDS011;66758;52.078;5.070;2024-01-10T03:21:06;4.93;;;2.63;;
77598;SDS011;66758;52.078;5.070;2024-01-10T03:23:31;5.03;;;3.03;;
77598;SDS011;66758;52.078;5.070;2024-01-10T03:25:56;6.37;;;3.03;;
77598;SDS011;66758;52.078;5.070;2024-01-10T03:28:22;6.20;;;2.53;;
77598;SDS011;66758;52.078;5.070;2024-01-10T03:30:47;7.10;;;3.10;;
77598;SDS011;66758;52.078;5.070;2024-01-10T03:33:13;8.37;;;3.47;;
77598;SDS011;66758;52.078;5.070;2024-01-10T03:35:38;6.60;;;2.90;;
77598;SDS011;66758;52.078;5.070;2024-01-10T03:38:03;5.60;;;1.93;;
77598;SDS011;66758;52.078;5.070;2024-01-10T03:40:35;6.55;;;2.55;;
77598;SDS011;66758;52.078;5.070;2024-01-10T03:43:00;8.03;;;2.80;;
77598;SDS011;66758;52.078;5.070;2024-01-10T03:45:26;5.73;;;2.33;;
77598;SDS011;66758;52.078;5.070;2024-01-10T03:47:51;7.30;;;2.55;;
77598;SDS011;66758;52.078;5.070;2024-01-10T03:50:17;7.33;;;3.20;;
77598;SDS011;66758;52.078;5.070;2024-01-10T03:52:43;5.57;;;2.42;;
77598;SDS011;66758;52.078;5.070;2024-01-10T03:55:09;5.40;;;2.73;;
77598;SDS011;66758;52.078;5.070;2024-01-10T03:57:34;6.53;;;3.23;;
77598;SDS011;66758;52.078;5.070;2024-01-10T03:59:59;7.87;;;3.07;;
77598;SDS011;66758;52.078;5.070;2024-01-10T04:02:25;7.53;;;3.05;;
77598;SDS011;66758;52.078;5.070;2024-01-10T04:04:51;6.20;;;3.08;;
77598;SDS011;66758;52.078;5.070;2024-01-10T04:07:17;6.83;;;3.13;;
77598;SDS011;66758;52.078;5.070;2024-01-10T04:09:42;5.07;;;2.40;;
77598;SDS011;66758;52.078;5.070;2024-01-10T04:12:07;5.97;;;3.07;;
77598;SDS011;66758;52.078;5.070;2024-01-10T04:14:34;6.20;;;3.10;;
77598;SDS011;66758;52.078;5.070;2024-01-10T04:16:59;5.75;;;2.67;;
77598;SDS011;66758;52.078;5.070;2024-01-10T04:19:29;7.32;;;2.95;;
77598;SDS011;66758;52.078;5.070;2024-01-10T04:21:54;7.18;;;3.40;;
77598;SDS011;66758;52.078;5.070;2024-01-10T04:24:20;7.37;;;3.50;;
77598;SDS011;66758;52.078;5.070;2024-01-10T04:26:45;6.50;;;3.33;;
77598;SDS011;66758;52.078;5.070;2024-01-10T04:29:10;7.80;;;3.53;;
77598;SDS011;66758;52.078;5.070;2024-01-10T04:31:36;4.72;;;2.45;;
77598;SDS011;66758;52.078;5.070;2024-01-10T04:34:02;7.60;;;3.50;;
77598;SDS011;66758;52.078;5.070;2024-01-10T04:36:27;8.55;;;3.00;;
77598;SDS011;66758;52.078;5.070;2024-01-10T04:38:53;8.73;;;3.50;;
77598;SDS011;66758;52.078;5.070;2024-01-10T04:41:18;7.77;;;3.03;;
77598;SDS011;66758;52.078;5.070;2024-01-10T04:43:44;6.03;;;2.72;;
77598;SDS011;66758;52.078;5.070;2024-01-10T04:46:09;8.07;;;3.70;;
77598;SDS011;66758;52.078;5.070;2024-01-10T04:48:35;6.07;;;2.83;;
77598;SDS011;66758;52.078;5.070;2024-01-10T04:51:00;9.03;;;3.57;;
77598;SDS011;66758;52.078;5.070;2024-01-10T04:53:26;6.80;;;2.83;;
77598;SDS011;66758;52.078;5.070;2024-01-10T04:55:53;5.97;;;3.00;;
77598;SDS011;66758;52.078;5.070;2024-01-10T04:58:18;6.35;;;2.42;;
77598;SDS011;66758;52.078;5.070;2024-01-10T05:00:43;5.80;;;3.00;;
77598;SDS011;66758;52.078;5.070;2024-01-10T05:03:08;6.53;;;2.57;;
77598;SDS011;66758;52.078;5.070;2024-01-10T05:05:34;6.43;;;2.80;;
77598;SDS011;66758;52.078;5.070;2024-01-10T05:07:59;6.13;;;2.90;;
77598;SDS011;66758;52.078;5.070;2024-01-10T05:10:26;8.48;;;3.08;;
77598;SDS011;66758;52.078;5.070;2024-01-10T05:12:52;6.17;;;2.53;;
77598;SDS011;66758;52.078;5.070;2024-01-10T05:15:18;6.90;;;3.25;;
77598;SDS011;66758;52.078;5.070;2024-01-10T05:17:44;7.78;;;3.15;;
77598;SDS011;66758;52.078;5.070;2024-01-10T05:20:09;7.43;;;3.20;;
77598;SDS011;66758;52.078;5.070;2024-01-10T05:22:34;6.00;;;2.83;;
77598;SDS011;66758;52.078;5.070;2024-01-10T05:25:00;7.97;;;2.80;;
77598;SDS011;66758;52.078;5.070;2024-01-10T05:27:26;6.87;;;2.87;;
77598;SDS011;66758;52.078;5.070;2024-01-10T05:29:51;7.57;;;3.08;;
77598;SDS011;66758;52.078;5.070;2024-01-10T05:32:17;7.93;;;3.47;;
77598;SDS011;66758;52.078;5.070;2024-01-10T05:34:42;4.67;;;2.37;;
77598;SDS011;66758;52.078;5.070;2024-01-10T05:37:08;6.13;;;2.83;;
77598;SDS011;66758;52.078;5.070;2024-01-10T05:39:33;6.75;;;3.45;;
77598;SDS011;66758;52.078;5.070;2024-01-10T05:41:58;8.60;;;3.93;;
77598;SDS011;66758;52.078;5.070;2024-01-10T05:44:24;6.03;;;3.00;;
77598;SDS011;66758;52.078;5.070;2024-01-10T05:46:49;5.23;;;3.37;;
77598;SDS011;66758;52.078;5.070;2024-01-10T05:49:14;7.83;;;3.60;;
77598;SDS011;66758;52.078;5.070;2024-01-10T05:51:40;7.43;;;2.80;;
77598;SDS011;66758;52.078;5.070;2024-01-10T05:54:05;7.80;;;3.10;;
77598;SDS011;66758;52.078;5.070;2024-01-10T05:56:32;8.70;;;3.88;;
77598;SDS011;66758;52.078;5.070;2024-01-10T05:58:57;6.63;;;3.53;;
77598;SDS011;66758;52.078;5.070;2024-01-10T06:01:22;8.47;;;3.67;;
77598;SDS011;66758;52.078;5.070;2024-01-10T06:03:48;5.77;;;2.70;;
77598;SDS011;66758;52.078;5.070;2024-01-10T06:06:14;6.70;;;3.85;;
77598;SDS011;66758;52.078;5.070;2024-01-10T06:08:39;11.20;;;3.77;;
77598;SDS011;66758;52.078;5.070;2024-01-10T06:11:06;9.55;;;3.85;;
77598;SDS011;66758;52.078;5.070;2024-01-10T06:13:34;7.53;;;3.90;;
77598;SDS011;66758;52.078;5.070;2024-01-10T06:16:00;7.80;;;3.65;;
77598;SDS011;66758;52.078;5.070;2024-01-10T06:18:27;5.70;;;2.67;;
77598;SDS011;66758;52.078;5.070;2024-01-10T06:20:53;7.80;;;3.57;;
77598;SDS011;66758;52.078;5.070;2024-01-10T06:23:18;5.73;;;3.07;;
77598;SDS011;66758;52.078;5.070;2024-01-10T06:25:45;9.40;;;4.37;;
77598;SDS011;66758;52.078;5.070;2024-01-10T06:28:10;6.63;;;2.80;;
77598;SDS011;66758;52.078;5.070;2024-01-10T06:30:35;7.83;;;4.03;;
77598;SDS011;66758;52.078;5.070;2024-01-10T06:33:04;9.17;;;4.03;;
77598;SDS011;66758;52.078;5.070;2024-01-10T06:35:31;5.80;;;3.13;;
77598;SDS011;66758;52.078;5.070;2024-01-10T06:37:57;9.07;;;4.60;;
77598;SDS011;66758;52.078;5.070;2024-01-10T06:40:22;10.03;;;4.63;;
77598;SDS011;66758;52.078;5.070;2024-01-10T06:42:47;7.22;;;3.53;;
77598;SDS011;66758;52.078;5.070;2024-01-10T06:45:13;7.97;;;3.17;;
77598;SDS011;66758;52.078;5.070;2024-01-10T06:47:39;8.63;;;3.80;;
77598;SDS011;66758;52.078;5.070;2024-01-10T06:50:04;6.05;;;2.92;;
77598;SDS011;66758;52.078;5.070;2024-01-10T06:52:30;12.40;;;4.00;;
77598;SDS011;66758;52.078;5.070;2024-01-10T06:54:56;6.72;;;3.00;;
77598;SDS011;66758;52.078;5.070;2024-01-10T06:57:22;8.55;;;2.95;;
77598;SDS011;66758;52.078;5.070;2024-01-10T06:59:47;5.53;;;3.30;;
77598;SDS011;66758;52.078;5.070;2024-01-10T07:02:12;10.20;;;3.70;;
77598;SDS011;66758;52.078;5.070;2024-01-10T07:04:38;7.97;;;4.00;;
77598;SDS011;66758;52.078;5.070;2024-01-10T07:07:03;17.70;;;3.87;;
77598;SDS011;66758;52.078;5.070;2024-01-10T07:09:29;9.10;;;3.15;;
77598;SDS011;66758;52.078;5.070;2024-01-10T07:11:54;7.60;;;3.23;;
77598;SDS011;66758;52.078;5.070;2024-01-10T07:14:19;14.17;;;4.63;;
77598;SDS011;66758;52.078;5.070;2024-01-10T07:16:45;9.73;;;4.50;;
77598;SDS011;66758;52.078;5.070;2024-01-10T07:19:11;8.63;;;3.60;;
77598;SDS011;66758;52.078;5.070;2024-01-10T07:21:42;27.33;;;4.47;;
77598;SDS011;66758;52.078;5.070;2024-01-10T07:24:07;10.23;;;3.80;;
77598;SDS011;66758;52.078;5.070;2024-01-10T07:26:34;8.60;;;3.28;;
77598;SDS011;66758;52.078;5.070;2024-01-10T07:28:59;8.27;;;3.40;;
77598;SDS011;66758;52.078;5.070;2024-01-10T07:31:27;10.18;;;4.00;;
77598;SDS011;66758;52.078;5.070;2024-01-10T07:33:54;7.13;;;3.13;;
77598;SDS011;66758;52.078;5.070;2024-01-10T07:36:20;13.07;;;3.23;;
77598;SDS011;66758;52.078;5.070;2024-01-10T07:38:45;9.20;;;3.50;;
77598;SDS011;66758;52.078;5.070;2024-01-10T07:41:11;7.47;;;3.08;;
77598;SDS011;66758;52.078;5.070;2024-01-10T07:43:36;7.20;;;3.50;;
77598;SDS011;66758;52.078;5.070;2024-01-10T07:46:02;7.70;;;3.75;;
77598;SDS011;66758;52.078;5.070;2024-01-10T07:48:27;7.87;;;3.17;;
77598;SDS011;66758;52.078;5.070;2024-01-10T07:51:00;10.93;;;3.40;;
77598;SDS011;66758;52.078;5.070;2024-01-10T07:53:25;10.57;;;3.92;;
77598;SDS011;66758;52.078;5.070;2024-01-10T07:55:51;6.27;;;2.83;;
77598;SDS011;66758;52.078;5.070;2024-01-10T07:58:17;7.57;;;3.15;;
77598;SDS011;66758;52.078;5.070;2024-01-10T08:00:42;11.50;;;3.13;;
77598;SDS011;66758;52.078;5.070;2024-01-10T08:03:08;11.77;;;3.60;;
77598;SDS011;66758;52.078;5.070;2024-01-10T08:05:35;18.50;;;4.32;;
77598;SDS011;66758;52.078;5.070;2024-01-10T08:08:00;7.93;;;3.10;;
77598;SDS011;66758;52.078;5.070;2024-01-10T08:10:25;7.63;;;3.87;;
77598;SDS011;66758;52.078;5.070;2024-01-10T08:12:52;7.95;;;3.60;;
77598;SDS011;66758;52.078;5.070;2024-01-10T08:15:17;5.90;;;3.10;;
77598;SDS011;66758;52.078;5.070;2024-01-10T08:17:44;8.60;;;3.90;;
77598;SDS011;66758;52.078;5.070;2024-01-10T08:20:10;7.27;;;3.57;;
77598;SDS011;66758;52.078;5.070;2024-01-10T08:22:36;8.93;;;3.13;;
77598;SDS011;66758;52.078;5.070;2024-01-10T08:25:01;8.50;;;3.00;;
77598;SDS011;66758;52.078;5.070;2024-01-10T08:27:27;8.80;;;3.72;;
77598;SDS011;66758;52.078;5.070;2024-01-10T08:29:53;13.10;;;4.23;;
77598;SDS011;66758;52.078;5.070;2024-01-10T08:32:18;7.60;;;3.23;;
77598;SDS011;66758;52.078;5.070;2024-01-10T08:34:47;7.00;;;3.28;;
77598;SDS011;66758;52.078;5.070;2024-01-10T08:37:14;15.07;;;4.18;;
77598;SDS011;66758;52.078;5.070;2024-01-10T08:39:42;9.48;;;3.42;;
77598;SDS011;66758;52.078;5.070;2024-01-10T08:42:08;7.00;;;3.40;;
77598;SDS011;66758;52.078;5.070;2024-01-10T08:44:34;9.15;;;3.10;;
77598;SDS011;66758;52.078;5.070;2024-01-10T08:47:00;9.90;;;3.67;;
77598;SDS011;66758;52.078;5.070;2024-01-10T08:49:25;7.87;;;3.73;;
77598;SDS011;66758;52.078;5.070;2024-01-10T08:51:52;6.73;;;2.77;;
77598;SDS011;66758;52.078;5.070;2024-01-10T08:54:18;8.98;;;3.83;;
77598;SDS011;66758;52.078;5.070;2024-01-10T08:56:45;9.40;;;3.78;;
77598;SDS011;66758;52.078;5.070;2024-01-10T08:59:10;7.73;;;3.50;;
77598;SDS011;66758;52.078;5.070;2024-01-10T09:01:36;9.88;;;4.10;;
77598;SDS011;66758;52.078;5.070;2024-01-10T09:04:04;7.65;;;2.72;;
77598;SDS011;66758;52.078;5.070;2024-01-10T09:06:30;6.90;;;3.00;;
77598;SDS011;66758;52.078;5.070;2024-01-10T09:08:56;8.57;;;3.60;;
77598;SDS011;66758;52.078;5.070;2024-01-10T09:11:21;8.17;;;3.33;;
77598;SDS011;66758;52.078;5.070;2024-01-10T09:13:46;8.80;;;3.97;;
77598;SDS011;66758;52.078;5.070;2024-01-10T09:16:12;11.70;;;4.10;;
77598;SDS011;66758;52.078;5.070;2024-01-10T09:18:37;7.03;;;3.30;;
77598;SDS011;66758;52.078;5.070;2024-01-10T09:21:04;11.50;;;4.05;;
77598;SDS011;66758;52.078;5.070;2024-01-10T09:23:29;8.43;;;4.00;;
77598;SDS011;66758;52.078;5.070;2024-01-10T09:25:54;7.70;;;3.33;;
77598;SDS011;66758;52.078;5.070;2024-01-10T09:28:20;9.77;;;3.80;;
77598;SDS011;66758;52.078;5.070;2024-01-10T09:30:46;6.30;;;3.03;;
77598;SDS011;66758;52.078;5.070;2024-01-10T09:33:11;7.60;;;3.67;;
77598;SDS011;66758;52.078;5.070;2024-01-10T09:35:37;6.73;;;2.80;;
77598;SDS011;66758;52.078;5.070;2024-01-10T09:38:02;7.80;;;3.27;;
77598;SDS011;66758;52.078;5.070;2024-01-10T09:40:28;9.32;;;4.05;;
77598;SDS011;66758;52.078;5.070;2024-01-10T09:42:54;6.73;;;3.27;;
77598;SDS011;66758;52.078;5.070;2024-01-10T09:45:20;8.57;;;2.70;;
77598;SDS011;66758;52.078;5.070;2024-01-10T09:47:46;9.38;;;3.88;;
77598;SDS011;66758;52.078;5.070;2024-01-10T09:50:13;6.55;;;3.00;;
77598;SDS011;66758;52.078;5.070;2024-01-10T09:52:41;8.33;;;3.43;;
77598;SDS011;66758;52.078;5.070;2024-01-10T09:55:07;12.02;;;3.63;;
77598;SDS011;66758;52.078;5.070;2024-01-10T09:57:33;7.82;;;3.65;;
77598;SDS011;66758;52.078;5.070;2024-01-10T10:00:01;7.88;;;3.70;;
77598;SDS011;66758;52.078;5.070;2024-01-10T10:02:29;8.18;;;3.70;;
77598;SDS011;66758;52.078;5.070;2024-01-10T10:07:24;7.47;;;3.75;;
77598;SDS011;66758;52.078;5.070;2024-01-10T10:09:49;7.70;;;4.40;;
77598;SDS011;66758;52.078;5.070;2024-01-10T10:12:15;8.57;;;3.70;;
77598;SDS011;66758;52.078;5.070;2024-01-10T10:14:40;6.67;;;3.67;;
77598;SDS011;66758;52.078;5.070;2024-01-10T10:17:15;8.67;;;3.57;;
77598;SDS011;66758;52.078;5.070;2024-01-10T10:19:41;8.10;;;3.75;;
77598;SDS011;66758;52.078;5.070;2024-01-10T10:22:09;9.23;;;4.47;;
77598;SDS011;66758;52.078;5.070;2024-01-10T10:24:35;9.20;;;3.80;;
77598;SDS011;66758;52.078;5.070;2024-01-10T10:27:00;9.00;;;4.18;;
77598;SDS011;66758;52.078;5.070;2024-01-10T10:29:25;10.60;;;4.50;;
77598;SDS011;66758;52.078;5.070;2024-01-10T10:31:51;13.03;;;4.43;;
77598;SDS011;66758;52.078;5.070;2024-01-10T10:34:20;8.37;;;4.07;;
77598;SDS011;66758;52.078;5.070;2024-01-10T10:36:46;9.60;;;4.47;;
77598;SDS011;66758;52.078;5.070;2024-01-10T10:39:15;9.27;;;4.90;;
77598;SDS011;66758;52.078;5.070;2024-01-10T10:41:40;9.93;;;4.45;;
77598;SDS011;66758;52.078;5.070;2024-01-10T10:44:06;6.38;;;3.55;;
77598;SDS011;66758;52.078;5.070;2024-01-10T10:46:34;7.97;;;4.07;;
77598;SDS011;66758;52.078;5.070;2024-01-10T10:49:02;7.82;;;4.25;;
77598;SDS011;66758;52.078;5.070;2024-01-10T10:51:35;8.40;;;3.80;;
77598;SDS011;66758;52.078;5.070;2024-01-10T10:54:02;11.13;;;4.00;;
77598;SDS011;66758;52.078;5.070;2024-01-10T10:56:29;8.93;;;4.35;;
77598;SDS011;66758;52.078;5.070;2024-01-10T10:58:55;9.77;;;4.72;;
77598;SDS011;66758;52.078;5.070;2024-01-10T11:01:21;10.93;;;4.50;;
77598;SDS011;66758;52.078;5.070;2024-01-10T11:03:47;11.53;;;4.17;;
77598;SDS011;66758;52.078;5.070;2024-01-10T11:06:13;7.57;;;3.50;;
77598;SDS011;66758;52.078;5.070;2024-01-10T11:08:49;8.03;;;4.37;;
77598;SDS011;66758;52.078;5.070;2024-01-10T11:11:26;7.07;;;4.10;;
77598;SDS011;66758;52.078;5.070;2024-01-10T11:24:12;11.55;;;4.22;;
77598;SDS011;66758;52.078;5.070;2024-01-10T11:26:38;8.93;;;4.15;;
77598;SDS011;66758;52.078;5.070;2024-01-10T11:29:04;10.27;;;4.57;;
77598;SDS011;66758;52.078;5.070;2024-01-10T11:31:31;9.02;;;4.72;;
77598;SDS011;66758;52.078;5.070;2024-01-10T11:34:00;23.90;;;4.93;;
77598;SDS011;66758;52.078;5.070;2024-01-10T11:36:28;24.80;;;5.80;;
77598;SDS011;66758;52.078;5.070;2024-01-10T11:39:02;10.02;;;4.47;;
77598;SDS011;66758;52.078;5.070;2024-01-10T11:41:32;9.90;;;4.00;;
77598;SDS011;66758;52.078;5.070;2024-01-10T11:49:10;9.43;;;4.07;;
77598;SDS011;66758;52.078;5.070;2024-01-10T11:51:45;9.45;;;4.63;;
77598;SDS011;66758;52.078;5.070;2024-01-10T11:54:10;9.95;;;4.10;;
77598;SDS011;66758;52.078;5.070;2024-01-10T11:56:42;10.83;;;4.67;;
77598;SDS011;66758;52.078;5.070;2024-01-10T11:59:08;9.32;;;3.80;;
77598;SDS011;66758;52.078;5.070;2024-01-10T12:01:35;10.33;;;4.13;;
77598;SDS011;66758;52.078;5.070;2024-01-10T12:04:01;10.63;;;3.90;;
77598;SDS011;66758;52.078;5.070;2024-01-10T12:06:27;11.30;;;4.35;;
77598;SDS011;66758;52.078;5.070;2024-01-10T12:08:52;14.73;;;4.37;;
77598;SDS011;66758;52.078;5.070;2024-01-10T12:11:17;9.70;;;4.60;;
77598;SDS011;66758;52.078;5.070;2024-01-10T12:13:43;10.23;;;3.80;;
77598;SDS011;66758;52.078;5.070;2024-01-10T12:16:08;9.13;;;4.40;;
77598;SDS011;66758;52.078;5.070;2024-01-10T12:18:35;8.57;;;3.75;;
77598;SDS011;66758;52.078;5.070;2024-01-10T12:21:00;5.47;;;2.93;;
77598;SDS011;66758;52.078;5.070;2024-01-10T12:23:25;10.73;;;4.90;;
77598;SDS011;66758;52.078;5.070;2024-01-10T12:25:56;9.40;;;4.07;;
77598;SDS011;66758;52.078;5.070;2024-01-10T12:28:21;10.43;;;4.37;;
77598;SDS011;66758;52.078;5.070;2024-01-10T12:30:47;10.77;;;4.35;;
77598;SDS011;66758;52.078;5.070;2024-01-10T12:33:12;10.30;;;4.03;;
77598;SDS011;66758;52.078;5.070;2024-01-10T12:35:38;12.70;;;4.37;;
77598;SDS011;66758;52.078;5.070;2024-01-10T12:38:06;9.68;;;3.97;;
77598;SDS011;66758;52.078;5.070;2024-01-10T12:40:31;12.27;;;4.27;;
77598;SDS011;66758;52.078;5.070;2024-01-10T12:43:03;12.70;;;4.43;;
77598;SDS011;66758;52.078;5.070;2024-01-10T12:45:29;10.87;;;3.83;;
77598;SDS011;66758;52.078;5.070;2024-01-10T12:47:54;9.25;;;4.15;;
77598;SDS011;66758;52.078;5.070;2024-01-10T12:50:20;10.07;;;4.00;;
77598;SDS011;66758;52.078;5.070;2024-01-10T12:52:45;8.10;;;4.67;;
77598;SDS011;66758;52.078;5.070;2024-01-10T12:55:11;11.20;;;4.28;;
77598;SDS011;66758;52.078;5.070;2024-01-10T12:57:37;8.87;;;4.23;;
77598;SDS011;66758;52.078;5.070;2024-01-10T13:00:03;8.95;;;4.20;;
77598;SDS011;66758;52.078;5.070;2024-01-10T13:02:31;7.72;;;4.13;;
77598;SDS011;66758;52.078;5.070;2024-01-10T13:05:00;9.63;;;4.20;;
77598;SDS011;66758;52.078;5.070;2024-01-10T13:07:25;7.57;;;3.40;;
77598;SDS011;66758;52.078;5.070;2024-01-10T13:09:52;9.10;;;4.13;;
77598;SDS011;66758;52.078;5.070;2024-01-10T13:12:18;9.57;;;4.13;;
77598;SDS011;66758;52.078;5.070;2024-01-10T13:14:44;15.18;;;4.70;;
77598;SDS011;66758;52.078;5.070;2024-01-10T13:17:09;19.07;;;5.27;;
77598;SDS011;66758;52.078;5.070;2024-01-10T13:19:34;10.60;;;4.37;;
77598;SDS011;66758;52.078;5.070;2024-01-10T13:22:00;9.90;;;4.70;;
77598;SDS011;66758;52.078;5.070;2024-01-10T13:24:25;9.17;;;4.27;;
77598;SDS011;66758;52.078;5.070;2024-01-10T13:26:51;8.52;;;3.95;;
77598;SDS011;66758;52.078;5.070;2024-01-10T13:29:16;8.60;;;4.70;;
77598;SDS011;66758;52.078;5.070;2024-01-10T13:31:41;9.80;;;4.53;;
77598;SDS011;66758;52.078;5.070;2024-01-10T13:34:07;9.50;;;4.63;;
77598;SDS011;66758;52.078;5.070;2024-01-10T13:36:32;9.27;;;4.07;;
77598;SDS011;66758;52.078;5.070;2024-01-10T13:38:57;9.50;;;4.70;;
77598;SDS011;66758;52.078;5.070;2024-01-10T13:41:23;10.60;;;4.50;;
77598;SDS011;66758;52.078;5.070;2024-01-10T13:43:48;10.05;;;4.03;;
77598;SDS011;66758;52.078;5.070;2024-01-10T13:46:13;13.37;;;5.07;;
77598;SDS011;66758;52.078;5.070;2024-01-10T13:48:38;8.63;;;3.73;;
77598;SDS011;66758;52.078;5.070;2024-01-10T13:51:05;11.63;;;4.40;;
77598;SDS011;66758;52.078;5.070;2024-01-10T13:53:30;11.57;;;4.72;;
77598;SDS011;66758;52.078;5.070;2024-01-10T13:55:57;13.55;;;4.78;;
77598;SDS011;66758;52.078;5.070;2024-01-10T13:58:23;10.67;;;4.43;;
77598;SDS011;66758;52.078;5.070;2024-01-10T14:00:49;9.40;;;4.63;;
77598;SDS011;66758;52.078;5.070;2024-01-10T14:03:14;8.98;;;4.40;;
77598;SDS011;66758;52.078;5.070;2024-01-10T14:05:41;10.43;;;4.80;;
77598;SDS011;66758;52.078;5.070;2024-01-10T14:08:06;9.63;;;3.85;;
77598;SDS011;66758;52.078;5.070;2024-01-10T14:10:31;9.40;;;4.07;;
77598;SDS011;66758;52.078;5.070;2024-01-10T14:12:57;9.63;;;4.77;;
77598;SDS011;66758;52.078;5.070;2024-01-10T14:15:22;8.93;;;4.23;;
77598;SDS011;66758;52.078;5.070;2024-01-10T14:17:49;7.53;;;3.93;;
77598;SDS011;66758;52.078;5.070;2024-01-10T14:20:14;12.80;;;4.07;;
77598;SDS011;66758;52.078;5.070;2024-01-10T14:22:39;8.47;;;4.27;;
77598;SDS011;66758;52.078;5.070;2024-01-10T14:25:06;10.57;;;4.22;;
77598;SDS011;66758;52.078;5.070;2024-01-10T14:27:31;9.27;;;4.20;;
77598;SDS011;66758;52.078;5.070;2024-01-10T14:29:57;9.13;;;4.00;;
77598;SDS011;66758;52.078;5.070;2024-01-10T14:32:23;8.98;;;4.10;;
77598;SDS011;66758;52.078;5.070;2024-01-10T14:34:49;11.67;;;4.57;;
77598;SDS011;66758;52.078;5.070;2024-01-10T14:37:14;8.47;;;3.67;;
77598;SDS011;66758;52.078;5.070;2024-01-10T14:39:39;9.13;;;4.23;;
77598;SDS011;66758;52.078;5.070;2024-01-10T14:42:05;8.57;;;3.87;;
77598;SDS011;66758;52.078;5.070;2024-01-10T14:44:32;6.70;;;3.83;;
77598;SDS011;66758;52.078;5.070;2024-01-10T14:46:58;9.07;;;3.70;;
77598;SDS011;66758;52.078;5.070;2024-01-10T14:52:26;8.75;;;3.60;;
77598;SDS011;66758;52.078;5.070;2024-01-10T14:54:53;10.33;;;3.83;;
77598;SDS011;66758;52.078;5.070;2024-01-10T14:57:18;9.25;;;3.88;;
77598;SDS011;66758;52.078;5.070;2024-01-10T14:59:43;7.37;;;3.97;;